Disclaimer

Please do not use the information listed here in-flight or in-navigation, as they are not provided to us by the airports but are provided by volunteers, so they might be outdated.

Search


Regions


Airport information page

Radio informations:
PESSOA TWR - 118.3 MHz
PESSOA CON - 118.3 MHz

Airport informations:
Latitude: 07° 08' 54.17" S
Longitude: 034° 57' 02.45" W
Elevation: 215 feet - 66 meters
Operating hours: 24 hour operations
Operating agency: Civil government, landing fees and diplomatic clearance may be required
Timezone: UTC-3(-2DT)
Fuel: Jet A1, without icing nhibitor.

100/130 octane gasoline, leaded, MIL-L-5572F (GREEN)

Runway information:
16/34 - 8251 x 148 feet< - >2515 x 45 meters

Recent METARs:
SBJP 202000Z 10013KT 9999 SCT022 27/21 Q1013
SBJP 202100Z 11010KT 9999 FEW020 26/22 Q1013
SBJP 202100Z 11010KT 9999 FEW020 26/22 Q1013

Airport on the map: